sensor_id;sensor_type;location;lat;lon;timestamp;temperature;humidity
32769;DHT22;23049;54.304;8.826;2022-09-13T00:00:08;17.80;99.90
32769;DHT22;23049;54.304;8.826;2022-09-13T00:02:34;17.80;99.90
32769;DHT22;23049;54.304;8.826;2022-09-13T00:04:59;17.70;99.90
32769;DHT22;23049;54.304;8.826;2022-09-13T00:07:25;17.80;99.90
32769;DHT22;23049;54.304;8.826;2022-09-13T00:09:50;17.80;99.90
32769;DHT22;23049;54.304;8.826;2022-09-13T00:12:16;17.80;99.90
32769;DHT22;23049;54.304;8.826;2022-09-13T00:14:41;17.80;99.90
32769;DHT22;23049;54.304;8.826;2022-09-13T00:17:07;17.80;99.90
32769;DHT22;23049;54.304;8.826;2022-09-13T00:19:32;17.70;99.90
32769;DHT22;23049;54.304;8.826;2022-09-13T00:21:58;17.70;99.90
32769;DHT22;23049;54.304;8.826;2022-09-13T00:24:23;17.70;99.90
32769;DHT22;23049;54.304;8.826;2022-09-13T00:26:49;17.70;99.90
32769;DHT22;23049;54.304;8.826;2022-09-13T00:29:14;17.70;99.90
32769;DHT22;23049;54.304;8.826;2022-09-13T00:31:40;17.70;99.90
32769;DHT22;23049;54.304;8.826;2022-09-13T00:34:06;17.70;99.90
32769;DHT22;23049;54.304;8.826;2022-09-13T00:36:31;17.70;99.90
32769;DHT22;23049;54.304;8.826;2022-09-13T00:38:58;17.70;99.90
32769;DHT22;23049;54.304;8.826;2022-09-13T00:46:20;17.70;99.90
32769;DHT22;23049;54.304;8.826;2022-09-13T00:48:46;17.70;99.90
32769;DHT22;23049;54.304;8.826;2022-09-13T00:51:14;17.60;99.90
32769;DHT22;23049;54.304;8.826;2022-09-13T00:53:40;17.60;99.90
32769;DHT22;23049;54.304;8.826;2022-09-13T00:56:08;17.60;99.90
32769;DHT22;23049;54.304;8.826;2022-09-13T00:58:37;17.60;99.90
32769;DHT22;23049;54.304;8.826;2022-09-13T01:01:04;17.60;99.90
32769;DHT22;23049;54.304;8.826;2022-09-13T01:03:32;17.50;99.90
32769;DHT22;23049;54.304;8.826;2022-09-13T01:06:01;17.50;99.90
32769;DHT22;23049;54.304;8.826;2022-09-13T01:08:28;17.60;99.90
32769;DHT22;23049;54.304;8.826;2022-09-13T01:10:55;17.60;99.90
32769;DHT22;23049;54.304;8.826;2022-09-13T01:13:33;17.50;99.90
32769;DHT22;23049;54.304;8.826;2022-09-13T01:15:59;17.50;99.90
32769;DHT22;23049;54.304;8.826;2022-09-13T01:18:25;17.40;99.90
32769;DHT22;23049;54.304;8.826;2022-09-13T01:21:08;17.40;99.90
32769;DHT22;23049;54.304;8.826;2022-09-13T01:23:43;17.40;99.90
32769;DHT22;23049;54.304;8.826;2022-09-13T01:26:34;17.40;99.90
32769;DHT22;23049;54.304;8.826;2022-09-13T01:31:36;17.50;99.90
32769;DHT22;23049;54.304;8.826;2022-09-13T01:39:02;17.50;99.90
32769;DHT22;23049;54.304;8.826;2022-09-13T01:46:28;17.60;99.90
32769;DHT22;23049;54.304;8.826;2022-09-13T01:48:57;17.60;99.90
32769;DHT22;23049;54.304;8.826;2022-09-13T01:51:27;17.60;99.90
32769;DHT22;23049;54.304;8.826;2022-09-13T01:54:01;17.60;99.90
32769;DHT22;23049;54.304;8.826;2022-09-13T02:02:12;17.70;99.90
32769;DHT22;23049;54.304;8.826;2022-09-13T02:04:41;17.80;99.90
32769;DHT22;23049;54.304;8.826;2022-09-13T02:07:18;17.80;99.90
32769;DHT22;23049;54.304;8.826;2022-09-13T02:09:46;17.80;99.90
32769;DHT22;23049;54.304;8.826;2022-09-13T02:12:23;17.80;99.90
32769;DHT22;23049;54.304;8.826;2022-09-13T02:17:27;18.00;99.90
32769;DHT22;23049;54.304;8.826;2022-09-13T02:19:58;17.90;99.90
32769;DHT22;23049;54.304;8.826;2022-09-13T02:22:33;17.90;99.90
32769;DHT22;23049;54.304;8.826;2022-09-13T02:25:02;17.80;99.90
32769;DHT22;23049;54.304;8.826;2022-09-13T02:27:31;17.70;99.90
32769;DHT22;23049;54.304;8.826;2022-09-13T02:29:59;17.70;99.90
32769;DHT22;23049;54.304;8.826;2022-09-13T02:32:30;17.60;99.90
32769;DHT22;23049;54.304;8.826;2022-09-13T02:35:03;17.70;99.90
32769;DHT22;23049;54.304;8.826;2022-09-13T02:37:30;17.70;99.90
32769;DHT22;23049;54.304;8.826;2022-09-13T02:39:58;17.60;99.90
32769;DHT22;23049;54.304;8.826;2022-09-13T02:45:23;17.60;99.90
32769;DHT22;23049;54.304;8.826;2022-09-13T02:47:53;17.60;99.90
32769;DHT22;23049;54.304;8.826;2022-09-13T02:55:23;17.60;99.90
32769;DHT22;23049;54.304;8.826;2022-09-13T02:57:52;17.60;99.90
32769;DHT22;23049;54.304;8.826;2022-09-13T03:00:21;17.70;99.90
32769;DHT22;23049;54.304;8.826;2022-09-13T03:02:47;17.70;99.90
32769;DHT22;23049;54.304;8.826;2022-09-13T03:05:13;17.70;99.90
32769;DHT22;23049;54.304;8.826;2022-09-13T03:07:39;17.70;99.90
32769;DHT22;23049;54.304;8.826;2022-09-13T03:10:05;17.70;99.90
32769;DHT22;23049;54.304;8.826;2022-09-13T03:15:12;17.60;99.90
32769;DHT22;23049;54.304;8.826;2022-09-13T03:17:48;17.50;99.90
32769;DHT22;23049;54.304;8.826;2022-09-13T03:20:29;17.50;99.90
32769;DHT22;23049;54.304;8.826;2022-09-13T03:23:12;17.40;99.90
32769;DHT22;23049;54.304;8.826;2022-09-13T03:25:58;17.40;99.90
32769;DHT22;23049;54.304;8.826;2022-09-13T03:31:01;17.30;99.90
32769;DHT22;23049;54.304;8.826;2022-09-13T03:33:41;17.20;99.90
32769;DHT22;23049;54.304;8.826;2022-09-13T03:36:10;17.20;99.90
32769;DHT22;23049;54.304;8.826;2022-09-13T03:41:08;17.10;99.90
32769;DHT22;23049;54.304;8.826;2022-09-13T03:43:35;17.10;99.90
32769;DHT22;23049;54.304;8.826;2022-09-13T03:46:08;17.10;99.90
32769;DHT22;23049;54.304;8.826;2022-09-13T03:48:35;17.00;99.90
32769;DHT22;23049;54.304;8.826;2022-09-13T03:51:05;17.00;99.90
32769;DHT22;23049;54.304;8.826;2022-09-13T03:53:32;17.10;99.90
32769;DHT22;23049;54.304;8.826;2022-09-13T03:55:59;17.10;99.90
32769;DHT22;23049;54.304;8.826;2022-09-13T03:58:25;17.00;99.90
32769;DHT22;23049;54.304;8.826;2022-09-13T04:03:13;16.90;99.90
32769;DHT22;23049;54.304;8.826;2022-09-13T04:05:39;17.00;99.90
32769;DHT22;23049;54.304;8.826;2022-09-13T04:08:05;17.00;99.90
32769;DHT22;23049;54.304;8.826;2022-09-13T04:10:31;17.00;99.90
32769;DHT22;23049;54.304;8.826;2022-09-13T04:12:57;17.10;99.90
32769;DHT22;23049;54.304;8.826;2022-09-13T04:15:25;17.10;99.90
32769;DHT22;23049;54.304;8.826;2022-09-13T04:17:50;17.00;99.90
32769;DHT22;23049;54.304;8.826;2022-09-13T04:20:16;16.90;99.90
32769;DHT22;23049;54.304;8.826;2022-09-13T04:22:42;16.70;99.90
32769;DHT22;23049;54.304;8.826;2022-09-13T04:25:07;16.80;99.90
32769;DHT22;23049;54.304;8.826;2022-09-13T04:27:33;16.80;99.90
32769;DHT22;23049;54.304;8.826;2022-09-13T04:34:26;16.60;99.90
32769;DHT22;23049;54.304;8.826;2022-09-13T04:36:52;16.50;99.90
32769;DHT22;23049;54.304;8.826;2022-09-13T04:39:18;16.40;99.90
32769;DHT22;23049;54.304;8.826;2022-09-13T04:41:44;16.30;99.90
32769;DHT22;23049;54.304;8.826;2022-09-13T04:44:14;16.20;99.90
32769;DHT22;23049;54.304;8.826;2022-09-13T04:46:39;16.20;99.90
32769;DHT22;23049;54.304;8.826;2022-09-13T04:49:05;16.10;99.90
32769;DHT22;23049;54.304;8.826;2022-09-13T04:51:31;16.00;99.90
32769;DHT22;23049;54.304;8.826;2022-09-13T04:53:57;16.00;99.90
32769;DHT22;23049;54.304;8.826;2022-09-13T04:56:22;15.90;99.90
32769;DHT22;23049;54.304;8.826;2022-09-13T04:58:55;15.80;99.90
32769;DHT22;23049;54.304;8.826;2022-09-13T05:01:21;15.80;99.90
32769;DHT22;23049;54.304;8.826;2022-09-13T05:03:46;15.90;99.90
32769;DHT22;23049;54.304;8.826;2022-09-13T05:06:13;16.00;99.90
32769;DHT22;23049;54.304;8.826;2022-09-13T05:08:39;16.00;99.90
32769;DHT22;23049;54.304;8.826;2022-09-13T05:13:47;16.00;99.90
32769;DHT22;23049;54.304;8.826;2022-09-13T05:16:17;16.00;99.90
32769;DHT22;23049;54.304;8.826;2022-09-13T05:18:42;16.00;99.90
32769;DHT22;23049;54.304;8.826;2022-09-13T05:23:21;16.00;99.90
32769;DHT22;23049;54.304;8.826;2022-09-13T05:25:53;16.10;99.90
32769;DHT22;23049;54.304;8.826;2022-09-13T05:28:19;16.10;99.90
32769;DHT22;23049;54.304;8.826;2022-09-13T05:30:52;16.10;99.90
32769;DHT22;23049;54.304;8.826;2022-09-13T05:33:18;16.10;99.90
32769;DHT22;23049;54.304;8.826;2022-09-13T05:35:44;16.10;99.90
32769;DHT22;23049;54.304;8.826;2022-09-13T05:38:09;16.00;99.90
32769;DHT22;23049;54.304;8.826;2022-09-13T05:40:34;16.00;99.90
32769;DHT22;23049;54.304;8.826;2022-09-13T05:43:00;15.90;99.90
32769;DHT22;23049;54.304;8.826;2022-09-13T05:45:25;15.90;99.90
32769;DHT22;23049;54.304;8.826;2022-09-13T05:47:51;15.90;99.90
32769;DHT22;23049;54.304;8.826;2022-09-13T05:50:16;15.80;99.90
32769;DHT22;23049;54.304;8.826;2022-09-13T05:52:42;15.80;99.90
32769;DHT22;23049;54.304;8.826;2022-09-13T05:55:08;15.80;99.90
32769;DHT22;23049;54.304;8.826;2022-09-13T05:57:35;15.90;99.90
32769;DHT22;23049;54.304;8.826;2022-09-13T06:00:00;15.90;99.90
32769;DHT22;23049;54.304;8.826;2022-09-13T06:02:26;16.10;99.90
32769;DHT22;23049;54.304;8.826;2022-09-13T06:04:51;16.20;99.90
32769;DHT22;23049;54.304;8.826;2022-09-13T06:07:17;16.40;99.90
32769;DHT22;23049;54.304;8.826;2022-09-13T06:11:57;16.60;99.90
32769;DHT22;23049;54.304;8.826;2022-09-13T06:14:23;16.60;99.90
32769;DHT22;23049;54.304;8.826;2022-09-13T06:16:48;16.60;99.90
32769;DHT22;23049;54.304;8.826;2022-09-13T06:19:14;16.70;99.90
32769;DHT22;23049;54.304;8.826;2022-09-13T06:21:39;16.80;99.90
32769;DHT22;23049;54.304;8.826;2022-09-13T06:24:06;16.90;99.90
32769;DHT22;23049;54.304;8.826;2022-09-13T06:26:31;17.00;99.90
32769;DHT22;23049;54.304;8.826;2022-09-13T06:28:57;17.00;99.90
32769;DHT22;23049;54.304;8.826;2022-09-13T06:31:24;17.00;99.90
32769;DHT22;23049;54.304;8.826;2022-09-13T06:33:54;17.10;99.90
32769;DHT22;23049;54.304;8.826;2022-09-13T06:36:19;17.10;99.90
32769;DHT22;23049;54.304;8.826;2022-09-13T06:38:45;17.30;99.90
32769;DHT22;23049;54.304;8.826;2022-09-13T06:41:12;17.50;99.90
32769;DHT22;23049;54.304;8.826;2022-09-13T06:43:38;17.70;99.90
32769;DHT22;23049;54.304;8.826;2022-09-13T06:48:31;17.70;99.90
32769;DHT22;23049;54.304;8.826;2022-09-13T06:50:57;17.70;99.90
32769;DHT22;23049;54.304;8.826;2022-09-13T06:53:22;17.70;99.90
32769;DHT22;23049;54.304;8.826;2022-09-13T06:55:48;17.60;99.90
32769;DHT22;23049;54.304;8.826;2022-09-13T06:58:13;17.70;99.90
32769;DHT22;23049;54.304;8.826;2022-09-13T07:00:39;17.60;99.90
32769;DHT22;23049;54.304;8.826;2022-09-13T07:03:04;17.50;99.90
32769;DHT22;23049;54.304;8.826;2022-09-13T07:05:30;17.50;99.90
32769;DHT22;23049;54.304;8.826;2022-09-13T07:07:56;17.40;99.90
32769;DHT22;23049;54.304;8.826;2022-09-13T07:10:21;17.30;99.90
32769;DHT22;23049;54.304;8.826;2022-09-13T07:12:47;17.20;99.90
32769;DHT22;23049;54.304;8.826;2022-09-13T07:15:12;17.10;99.90
32769;DHT22;23049;54.304;8.826;2022-09-13T07:17:38;17.10;99.90
32769;DHT22;23049;54.304;8.826;2022-09-13T07:20:03;17.20;99.90
32769;DHT22;23049;54.304;8.826;2022-09-13T07:22:31;17.30;99.90
32769;DHT22;23049;54.304;8.826;2022-09-13T07:24:56;17.40;99.90
32769;DHT22;23049;54.304;8.826;2022-09-13T07:27:22;17.50;99.90
32769;DHT22;23049;54.304;8.826;2022-09-13T07:29:47;17.40;99.90
32769;DHT22;23049;54.304;8.826;2022-09-13T07:32:13;17.50;99.90
32769;DHT22;23049;54.304;8.826;2022-09-13T07:34:38;17.70;99.90
32769;DHT22;23049;54.304;8.826;2022-09-13T07:37:04;17.90;99.90
32769;DHT22;23049;54.304;8.826;2022-09-13T07:42:10;18.10;99.90
32769;DHT22;23049;54.304;8.826;2022-09-13T07:44:35;18.20;99.90
32769;DHT22;23049;54.304;8.826;2022-09-13T07:47:01;18.10;99.90
32769;DHT22;23049;54.304;8.826;2022-09-13T07:49:26;18.00;99.90
32769;DHT22;23049;54.304;8.826;2022-09-13T07:51:52;17.90;99.90
32769;DHT22;23049;54.304;8.826;2022-09-13T07:54:18;17.80;99.90
32769;DHT22;23049;54.304;8.826;2022-09-13T07:56:44;17.70;99.90
32769;DHT22;23049;54.304;8.826;2022-09-13T07:59:11;17.90;99.90
32769;DHT22;23049;54.304;8.826;2022-09-13T08:01:38;18.10;99.90
32769;DHT22;23049;54.304;8.826;2022-09-13T08:04:04;18.00;99.90
32769;DHT22;23049;54.304;8.826;2022-09-13T08:06:31;17.80;99.90
32769;DHT22;23049;54.304;8.826;2022-09-13T08:08:57;17.70;99.90
32769;DHT22;23049;54.304;8.826;2022-09-13T08:11:24;17.70;99.90
32769;DHT22;23049;54.304;8.826;2022-09-13T08:13:50;17.70;99.90
32769;DHT22;23049;54.304;8.826;2022-09-13T08:16:17;17.60;99.90
32769;DHT22;23049;54.304;8.826;2022-09-13T08:18:46;17.70;99.90
32769;DHT22;23049;54.304;8.826;2022-09-13T08:21:12;17.80;99.90
32769;DHT22;23049;54.304;8.826;2022-09-13T08:23:38;17.70;99.90
32769;DHT22;23049;54.304;8.826;2022-09-13T08:26:03;17.80;99.90
32769;DHT22;23049;54.304;8.826;2022-09-13T08:28:30;17.90;99.90
32769;DHT22;23049;54.304;8.826;2022-09-13T08:33:37;17.90;99.90
32769;DHT22;23049;54.304;8.826;2022-09-13T08:36:03;17.90;99.90
32769;DHT22;23049;54.304;8.826;2022-09-13T08:38:28;17.90;99.90
32769;DHT22;23049;54.304;8.826;2022-09-13T08:41:43;17.90;99.90
32769;DHT22;23049;54.304;8.826;2022-09-13T08:48:43;18.10;99.90
32769;DHT22;23049;54.304;8.826;2022-09-13T08:53:55;18.10;99.90
32769;DHT22;23049;54.304;8.826;2022-09-13T08:56:28;18.10;99.90
32769;DHT22;23049;54.304;8.826;2022-09-13T09:04:49;18.10;99.90
32769;DHT22;23049;54.304;8.826;2022-09-13T09:07:22;18.10;99.90
32769;DHT22;23049;54.304;8.826;2022-09-13T09:09:55;18.20;99.90
32769;DHT22;23049;54.304;8.826;2022-09-13T09:15:01;18.20;99.90
32769;DHT22;23049;54.304;8.826;2022-09-13T09:17:29;18.20;99.90
32769;DHT22;23049;54.304;8.826;2022-09-13T09:22:33;18.10;99.90
32769;DHT22;23049;54.304;8.826;2022-09-13T09:25:00;18.10;99.90
32769;DHT22;23049;54.304;8.826;2022-09-13T09:27:28;18.10;99.90
32769;DHT22;23049;54.304;8.826;2022-09-13T09:29:54;18.20;99.90
32769;DHT22;23049;54.304;8.826;2022-09-13T09:35:14;18.20;99.90
32769;DHT22;23049;54.304;8.826;2022-09-13T09:37:41;18.40;99.90
32769;DHT22;23049;54.304;8.826;2022-09-13T09:40:10;18.40;99.90
32769;DHT22;23049;54.304;8.826;2022-09-13T09:42:43;18.40;99.90
32769;DHT22;23049;54.304;8.826;2022-09-13T09:45:29;18.50;99.90
32769;DHT22;23049;54.304;8.826;2022-09-13T09:47:57;18.40;99.90
32769;DHT22;23049;54.304;8.826;2022-09-13T09:50:29;18.50;99.90
32769;DHT22;23049;54.304;8.826;2022-09-13T09:53:07;18.60;99.90
32769;DHT22;23049;54.304;8.826;2022-09-13T09:55:47;18.60;99.90
32769;DHT22;23049;54.304;8.826;2022-09-13T09:58:16;18.60;99.90
32769;DHT22;23049;54.304;8.826;2022-09-13T10:03:17;18.70;99.90
32769;DHT22;23049;54.304;8.826;2022-09-13T10:05:43;18.70;99.90
32769;DHT22;23049;54.304;8.826;2022-09-13T10:08:29;18.80;99.90
32769;DHT22;23049;54.304;8.826;2022-09-13T10:10:58;18.90;99.90
32769;DHT22;23049;54.304;8.826;2022-09-13T10:13:25;19.00;99.90
32769;DHT22;23049;54.304;8.826;2022-09-13T10:15:51;19.00;99.90
32769;DHT22;23049;54.304;8.826;2022-09-13T10:18:19;19.20;99.90
32769;DHT22;23049;54.304;8.826;2022-09-13T10:20:58;19.30;99.90
32769;DHT22;23049;54.304;8.826;2022-09-13T10:23:25;19.40;99.90
32769;DHT22;23049;54.304;8.826;2022-09-13T10:26:00;19.50;99.90
32769;DHT22;23049;54.304;8.826;2022-09-13T10:28:27;19.60;99.90
32769;DHT22;23049;54.304;8.826;2022-09-13T10:33:36;19.50;99.90
32769;DHT22;23049;54.304;8.826;2022-09-13T10:36:24;19.50;99.90
32769;DHT22;23049;54.304;8.826;2022-09-13T10:38:50;19.70;99.90
32769;DHT22;23049;54.304;8.826;2022-09-13T10:41:21;20.00;99.90
32769;DHT22;23049;54.304;8.826;2022-09-13T10:43:49;19.90;99.90
32769;DHT22;23049;54.304;8.826;2022-09-13T10:46:21;19.50;99.90
32769;DHT22;23049;54.304;8.826;2022-09-13T10:48:47;19.10;99.90
32769;DHT22;23049;54.304;8.826;2022-09-13T10:56:35;18.70;99.90
32769;DHT22;23049;54.304;8.826;2022-09-13T10:59:18;18.70;99.90
32769;DHT22;23049;54.304;8.826;2022-09-13T11:06:40;19.10;99.90
32769;DHT22;23049;54.304;8.826;2022-09-13T11:09:09;19.20;99.90
32769;DHT22;23049;54.304;8.826;2022-09-13T11:11:57;19.20;99.90
32769;DHT22;23049;54.304;8.826;2022-09-13T11:32:37;20.00;99.90
32769;DHT22;23049;54.304;8.826;2022-09-13T11:35:19;20.00;99.90
32769;DHT22;23049;54.304;8.826;2022-09-13T11:37:56;19.90;99.90
32769;DHT22;23049;54.304;8.826;2022-09-13T11:53:58;20.10;99.90
32769;DHT22;23049;54.304;8.826;2022-09-13T11:56:36;20.00;99.90
32769;DHT22;23049;54.304;8.826;2022-09-13T12:01:38;20.20;99.90
32769;DHT22;23049;54.304;8.826;2022-09-13T12:04:09;20.00;99.90
32769;DHT22;23049;54.304;8.826;2022-09-13T12:06:42;20.00;99.90
32769;DHT22;23049;54.304;8.826;2022-09-13T12:09:19;19.90;99.90
32769;DHT22;23049;54.304;8.826;2022-09-13T12:11:53;20.20;99.90
32769;DHT22;23049;54.304;8.826;2022-09-13T12:14:21;20.00;99.90
32769;DHT22;23049;54.304;8.826;2022-09-13T12:16:48;19.90;99.90
32769;DHT22;23049;54.304;8.826;2022-09-13T12:19:16;19.50;99.90
32769;DHT22;23049;54.304;8.826;2022-09-13T12:24:17;19.10;99.90
32769;DHT22;23049;54.304;8.826;2022-09-13T12:27:03;19.40;99.90
32769;DHT22;23049;54.304;8.826;2022-09-13T12:29:34;19.50;99.90
32769;DHT22;23049;54.304;8.826;2022-09-13T12:32:04;19.70;99.90
32769;DHT22;23049;54.304;8.826;2022-09-13T12:34:37;19.70;99.90
32769;DHT22;23049;54.304;8.826;2022-09-13T12:48:12;20.50;99.90
32769;DHT22;23049;54.304;8.826;2022-09-13T12:53:27;20.10;99.90
32769;DHT22;23049;54.304;8.826;2022-09-13T13:01:22;19.40;99.90
32769;DHT22;23049;54.304;8.826;2022-09-13T13:03:51;19.40;99.90
32769;DHT22;23049;54.304;8.826;2022-09-13T13:06:25;19.70;99.90
32769;DHT22;23049;54.304;8.826;2022-09-13T13:08:54;19.70;99.90
32769;DHT22;23049;54.304;8.826;2022-09-13T13:11:23;19.80;99.90
32769;DHT22;23049;54.304;8.826;2022-09-13T13:14:00;19.90;99.90
32769;DHT22;23049;54.304;8.826;2022-09-13T13:16:34;20.00;99.90
32769;DHT22;23049;54.304;8.826;2022-09-13T13:19:01;19.90;99.90
32769;DHT22;23049;54.304;8.826;2022-09-13T13:21:29;19.90;99.90
32769;DHT22;23049;54.304;8.826;2022-09-13T13:29:13;19.90;99.90
32769;DHT22;23049;54.304;8.826;2022-09-13T13:32:03;19.90;99.90
32769;DHT22;23049;54.304;8.826;2022-09-13T13:42:26;19.80;99.90
32769;DHT22;23049;54.304;8.826;2022-09-13T13:49:39;20.00;99.90
32769;DHT22;23049;54.304;8.826;2022-09-13T13:54:29;20.00;99.90
32769;DHT22;23049;54.304;8.826;2022-09-13T13:56:56;20.10;99.90
32769;DHT22;23049;54.304;8.826;2022-09-13T13:59:24;20.10;99.90
32769;DHT22;23049;54.304;8.826;2022-09-13T14:01:52;20.10;99.90
32769;DHT22;23049;54.304;8.826;2022-09-13T14:11:57;19.60;99.90
32769;DHT22;23049;54.304;8.826;2022-09-13T14:14:34;19.50;99.90
32769;DHT22;23049;54.304;8.826;2022-09-13T14:19:43;19.10;99.90
32769;DHT22;23049;54.304;8.826;2022-09-13T14:24:38;19.00;99.90
32769;DHT22;23049;54.304;8.826;2022-09-13T14:27:04;19.10;99.90
32769;DHT22;23049;54.304;8.826;2022-09-13T14:29:29;18.90;99.90
32769;DHT22;23049;54.304;8.826;2022-09-13T14:32:03;18.70;99.90
32769;DHT22;23049;54.304;8.826;2022-09-13T14:34:30;18.70;99.90
32769;DHT22;23049;54.304;8.826;2022-09-13T14:37:00;18.80;99.90
32769;DHT22;23049;54.304;8.826;2022-09-13T14:39:26;18.90;99.90
32769;DHT22;23049;54.304;8.826;2022-09-13T14:41:59;18.90;99.90
32769;DHT22;23049;54.304;8.826;2022-09-13T14:44:25;19.10;99.90
32769;DHT22;23049;54.304;8.826;2022-09-13T14:47:38;19.20;99.90
32769;DHT22;23049;54.304;8.826;2022-09-13T14:49:40;19.10;99.90
32769;DHT22;23049;54.304;8.826;2022-09-13T14:52:08;19.20;99.90
32769;DHT22;23049;54.304;8.826;2022-09-13T14:54:42;19.30;99.90
32769;DHT22;23049;54.304;8.826;2022-09-13T14:57:14;19.20;99.90
32769;DHT22;23049;54.304;8.826;2022-09-13T15:02:31;19.40;99.90
32769;DHT22;23049;54.304;8.826;2022-09-13T15:04:59;19.20;99.90
32769;DHT22;23049;54.304;8.826;2022-09-13T15:07:29;19.10;99.90
32769;DHT22;23049;54.304;8.826;2022-09-13T15:10:06;19.10;99.90
32769;DHT22;23049;54.304;8.826;2022-09-13T15:12:32;19.00;99.90
32769;DHT22;23049;54.304;8.826;2022-09-13T15:17:50;19.00;99.90
32769;DHT22;23049;54.304;8.826;2022-09-13T15:20:16;18.80;99.90
32769;DHT22;23049;54.304;8.826;2022-09-13T15:22:41;18.80;99.90
32769;DHT22;23049;54.304;8.826;2022-09-13T15:25:20;18.80;99.90
32769;DHT22;23049;54.304;8.826;2022-09-13T15:27:47;18.70;99.90
32769;DHT22;23049;54.304;8.826;2022-09-13T15:33:05;18.70;99.90
32769;DHT22;23049;54.304;8.826;2022-09-13T15:35:41;18.80;99.90
32769;DHT22;23049;54.304;8.826;2022-09-13T15:40:44;18.90;99.90
32769;DHT22;23049;54.304;8.826;2022-09-13T15:43:09;18.90;99.90
32769;DHT22;23049;54.304;8.826;2022-09-13T15:45:35;18.80;99.90
32769;DHT22;23049;54.304;8.826;2022-09-13T15:48:00;18.80;99.90
32769;DHT22;23049;54.304;8.826;2022-09-13T15:50:27;18.80;99.90
32769;DHT22;23049;54.304;8.826;2022-09-13T15:52:55;18.70;99.90
32769;DHT22;23049;54.304;8.826;2022-09-13T15:55:21;18.70;99.90
32769;DHT22;23049;54.304;8.826;2022-09-13T15:57:47;18.60;99.90
32769;DHT22;23049;54.304;8.826;2022-09-13T16:00:13;18.50;99.90
32769;DHT22;23049;54.304;8.826;2022-09-13T16:02:39;18.50;99.90
32769;DHT22;23049;54.304;8.826;2022-09-13T16:05:05;18.50;99.90
32769;DHT22;23049;54.304;8.826;2022-09-13T16:07:32;18.50;99.90
32769;DHT22;23049;54.304;8.826;2022-09-13T16:09:58;18.50;99.90
32769;DHT22;23049;54.304;8.826;2022-09-13T16:12:23;18.60;99.90
32769;DHT22;23049;54.304;8.826;2022-09-13T16:14:51;18.50;99.90
32769;DHT22;23049;54.304;8.826;2022-09-13T16:17:25;18.50;99.90
32769;DHT22;23049;54.304;8.826;2022-09-13T16:19:51;18.40;99.90
32769;DHT22;23049;54.304;8.826;2022-09-13T16:22:17;18.30;99.90
32769;DHT22;23049;54.304;8.826;2022-09-13T16:24:42;18.30;99.90
32769;DHT22;23049;54.304;8.826;2022-09-13T16:27:12;18.30;99.90
32769;DHT22;23049;54.304;8.826;2022-09-13T16:29:37;18.10;99.90
32769;DHT22;23049;54.304;8.826;2022-09-13T16:32:03;18.00;99.90
32769;DHT22;23049;54.304;8.826;2022-09-13T16:34:29;18.00;99.90
32769;DHT22;23049;54.304;8.826;2022-09-13T16:36:54;18.00;99.90
32769;DHT22;23049;54.304;8.826;2022-09-13T16:39:20;18.20;99.90
32769;DHT22;23049;54.304;8.826;2022-09-13T16:41:45;18.20;99.90
32769;DHT22;23049;54.304;8.826;2022-09-13T16:44:11;18.10;99.90
32769;DHT22;23049;54.304;8.826;2022-09-13T16:46:38;18.10;99.90
32769;DHT22;23049;54.304;8.826;2022-09-13T16:49:04;18.10;99.90
32769;DHT22;23049;54.304;8.826;2022-09-13T16:51:30;18.10;99.90
32769;DHT22;23049;54.304;8.826;2022-09-13T16:53:55;18.00;99.90
32769;DHT22;23049;54.304;8.826;2022-09-13T16:56:22;18.00;99.90
32769;DHT22;23049;54.304;8.826;2022-09-13T16:58:48;17.90;99.90
32769;DHT22;23049;54.304;8.826;2022-09-13T17:01:15;17.80;99.90
32769;DHT22;23049;54.304;8.826;2022-09-13T17:03:41;17.70;99.90
32769;DHT22;23049;54.304;8.826;2022-09-13T17:06:08;17.70;99.90
32769;DHT22;23049;54.304;8.826;2022-09-13T17:08:35;17.60;99.90
32769;DHT22;23049;54.304;8.826;2022-09-13T17:13:33;17.50;99.90
32769;DHT22;23049;54.304;8.826;2022-09-13T17:15:59;17.40;99.90
32769;DHT22;23049;54.304;8.826;2022-09-13T17:18:25;17.30;99.90
32769;DHT22;23049;54.304;8.826;2022-09-13T17:23:20;17.20;99.90
32769;DHT22;23049;54.304;8.826;2022-09-13T17:25:47;17.20;99.90
32769;DHT22;23049;54.304;8.826;2022-09-13T17:28:16;17.10;99.90
32769;DHT22;23049;54.304;8.826;2022-09-13T17:30:42;17.10;99.90
32769;DHT22;23049;54.304;8.826;2022-09-13T17:33:08;17.10;99.90
32769;DHT22;23049;54.304;8.826;2022-09-13T17:35:33;17.10;99.90
32769;DHT22;23049;54.304;8.826;2022-09-13T17:37:59;17.10;99.90
32769;DHT22;23049;54.304;8.826;2022-09-13T17:40:26;17.10;99.90
32769;DHT22;23049;54.304;8.826;2022-09-13T17:42:52;17.10;99.90
32769;DHT22;23049;54.304;8.826;2022-09-13T17:45:18;17.10;99.90
32769;DHT22;23049;54.304;8.826;2022-09-13T17:47:45;17.00;99.90
32769;DHT22;23049;54.304;8.826;2022-09-13T17:50:10;17.10;99.90
32769;DHT22;23049;54.304;8.826;2022-09-13T17:52:36;17.10;99.90
32769;DHT22;23049;54.304;8.826;2022-09-13T17:55:01;17.10;99.90
32769;DHT22;23049;54.304;8.826;2022-09-13T17:57:27;17.10;99.90
32769;DHT22;23049;54.304;8.826;2022-09-13T17:59:53;17.10;99.90
32769;DHT22;23049;54.304;8.826;2022-09-13T18:02:19;17.00;99.90
32769;DHT22;23049;54.304;8.826;2022-09-13T18:04:46;16.90;99.90
32769;DHT22;23049;54.304;8.826;2022-09-13T18:07:11;16.80;99.90
32769;DHT22;23049;54.304;8.826;2022-09-13T18:09:37;16.80;99.90
32769;DHT22;23049;54.304;8.826;2022-09-13T18:12:04;16.80;99.90
32769;DHT22;23049;54.304;8.826;2022-09-13T18:14:30;16.80;99.90
32769;DHT22;23049;54.304;8.826;2022-09-13T18:16:57;16.80;99.90
32769;DHT22;23049;54.304;8.826;2022-09-13T18:19:23;16.80;99.90
32769;DHT22;23049;54.304;8.826;2022-09-13T18:21:48;16.80;99.90
32769;DHT22;23049;54.304;8.826;2022-09-13T18:24:14;16.90;99.90
32769;DHT22;23049;54.304;8.826;2022-09-13T18:26:39;16.90;99.90
32769;DHT22;23049;54.304;8.826;2022-09-13T18:29:06;16.80;99.90
32769;DHT22;23049;54.304;8.826;2022-09-13T18:31:33;16.70;99.90
32769;DHT22;23049;54.304;8.826;2022-09-13T18:34:00;16.80;99.90
32769;DHT22;23049;54.304;8.826;2022-09-13T18:38:55;16.80;99.90
32769;DHT22;23049;54.304;8.826;2022-09-13T18:41:22;16.80;99.90
32769;DHT22;23049;54.304;8.826;2022-09-13T18:43:49;16.60;99.90
32769;DHT22;23049;54.304;8.826;2022-09-13T18:46:16;16.40;99.90
32769;DHT22;23049;54.304;8.826;2022-09-13T18:48:43;16.40;99.90
32769;DHT22;23049;54.304;8.826;2022-09-13T18:51:09;16.40;99.90
32769;DHT22;23049;54.304;8.826;2022-09-13T18:53:35;16.40;99.90
32769;DHT22;23049;54.304;8.826;2022-09-13T18:56:05;16.40;99.90
32769;DHT22;23049;54.304;8.826;2022-09-13T18:58:31;16.60;99.90
32769;DHT22;23049;54.304;8.826;2022-09-13T19:01:01;16.60;99.90
32769;DHT22;23049;54.304;8.826;2022-09-13T19:03:27;16.70;99.90